createdAt,value
2018-12-20T00:00:12.895Z,58.30
2018-12-20T00:00:44.063Z,60.28
2018-12-20T00:01:15.520Z,62.60
2018-12-20T00:01:46.675Z,61.08
2018-12-20T00:02:17.815Z,58.08
2018-12-20T00:02:48.929Z,62.03
2018-12-20T00:03:20.046Z,62.62
2018-12-20T00:03:52.161Z,63.80
2018-12-20T00:04:23.389Z,64.50
2018-12-20T00:04:54.630Z,62.95
2018-12-20T00:05:25.842Z,61.23
2018-12-20T00:05:56.973Z,62.33
2018-12-20T00:06:28.172Z,63.33
2018-12-20T00:06:59.404Z,62.65
2018-12-20T00:07:30.616Z,63.80
2018-12-20T00:08:01.752Z,62.90
2018-12-20T00:08:32.909Z,63.75
2018-12-20T00:09:04.144Z,64.70
2018-12-20T00:09:35.267Z,64.95
2018-12-20T00:10:06.423Z,62.60
2018-12-20T00:10:37.651Z,57.15
2018-12-20T00:11:08.873Z,59.27
2018-12-20T00:11:40.090Z,60.40
2018-12-20T00:12:11.267Z,65.15
2018-12-20T00:12:42.379Z,65.05
2018-12-20T00:13:13.486Z,64.35
2018-12-20T00:13:44.601Z,63.95
2018-12-20T00:14:15.833Z,58.65
2018-12-20T00:14:46.984Z,64.10
2018-12-20T00:15:18.150Z,60.25
2018-12-20T00:15:49.387Z,63.75
2018-12-20T00:16:20.690Z,61.75
2018-12-20T00:16:51.886Z,64.25
2018-12-20T00:17:23.146Z,63.38
2018-12-20T00:17:54.400Z,60.58
2018-12-20T00:18:25.590Z,64.58
2018-12-20T00:18:57.517Z,60.90
2018-12-20T00:19:28.785Z,61.25
2018-12-20T00:20:00.775Z,59.98
2018-12-20T00:20:31.997Z,63.68
2018-12-20T00:21:03.230Z,62.27
2018-12-20T00:21:34.544Z,64.47
2018-12-20T00:22:05.683Z,66.50
2018-12-20T00:22:37.006Z,62.58
2018-12-20T00:23:08.194Z,62.48
2018-12-20T00:23:39.397Z,64.75
2018-12-20T00:24:10.701Z,64.85
2018-12-20T00:24:41.955Z,63.63
2018-12-20T00:25:13.253Z,67.62
2018-12-20T00:25:44.403Z,64.62
2018-12-20T00:26:15.552Z,64.40
2018-12-20T00:26:46.794Z,67.37
2018-12-20T00:27:17.986Z,68.37
2018-12-20T00:27:49.099Z,66.47
2018-12-20T00:28:20.213Z,68.25
2018-12-20T00:28:51.554Z,65.15
2018-12-20T00:29:22.740Z,65.90
2018-12-20T00:29:53.992Z,70.22
2018-12-20T00:30:25.266Z,67.65
2018-12-20T00:30:56.437Z,68.10
2018-12-20T00:31:27.609Z,67.65
2018-12-20T00:31:58.872Z,72.25
2018-12-20T00:32:29.994Z,73.20
2018-12-20T00:33:01.128Z,67.60
2018-12-20T00:33:32.512Z,71.45
2018-12-20T00:34:03.724Z,70.97
2018-12-20T00:34:34.870Z,67.85
2018-12-20T00:35:06.139Z,65.03
2018-12-20T00:35:37.370Z,70.22
2018-12-20T00:36:08.597Z,66.15
2018-12-20T00:36:39.712Z,73.90
2018-12-20T00:37:10.815Z,68.80
2018-12-20T00:37:41.963Z,66.25
2018-12-20T00:38:13.202Z,68.87
2018-12-20T00:38:44.422Z,70.72
2018-12-20T00:39:15.543Z,66.30
2018-12-20T00:39:46.701Z,66.60
2018-12-20T00:40:17.818Z,70.25
2018-12-20T00:40:49.032Z,69.97
2018-12-20T00:41:20.163Z,68.75
2018-12-20T00:41:51.427Z,65.05
2018-12-20T00:42:22.643Z,68.55
2018-12-20T00:42:53.937Z,68.90
2018-12-20T00:43:25.116Z,71.53
2018-12-20T00:43:56.366Z,67.20
2018-12-20T00:44:27.598Z,74.92
2018-12-20T00:44:58.865Z,70.83
2018-12-20T00:45:30.283Z,69.87
2018-12-20T00:46:02.164Z,71.65
2018-12-20T00:46:33.272Z,71.45
2018-12-20T00:47:04.517Z,69.42
2018-12-20T00:47:35.658Z,71.25
2018-12-20T00:48:06.845Z,73.67
2018-12-20T00:48:38.056Z,67.50
2018-12-20T00:49:09.196Z,73.47
2018-12-20T00:49:40.359Z,69.12
2018-12-20T00:50:11.763Z,67.27
2018-12-20T00:50:42.968Z,72.78
2018-12-20T00:51:14.200Z,72.12
2018-12-20T00:51:45.408Z,67.12
2018-12-20T00:52:16.536Z,73.85
2018-12-20T00:52:47.755Z,71.82
2018-12-20T00:53:18.907Z,71.15
2018-12-20T00:53:50.130Z,69.47
2018-12-20T00:54:21.307Z,70.05
2018-12-20T00:54:52.424Z,70.87
2018-12-20T00:55:23.600Z,67.92
2018-12-20T00:55:55.106Z,70.50
2018-12-20T00:56:26.464Z,70.32
2018-12-20T00:56:58.405Z,70.80
2018-12-20T00:57:29.514Z,70.90
2018-12-20T00:58:00.703Z,72.03
2018-12-20T00:58:31.922Z,69.20
2018-12-20T00:59:03.247Z,70.25
2018-12-20T00:59:34.435Z,71.42
2018-12-20T01:00:05.553Z,73.52
2018-12-20T01:00:37.653Z,76.33
2018-12-20T01:01:08.965Z,68.42
2018-12-20T01:01:40.145Z,75.67
2018-12-20T01:02:11.374Z,71.37
2018-12-20T01:02:42.665Z,72.78
2018-12-20T01:03:13.897Z,77.10
2018-12-20T01:03:45.017Z,72.47
2018-12-20T01:04:16.135Z,70.55
2018-12-20T01:04:47.332Z,74.82
2018-12-20T01:05:18.633Z,69.97
2018-12-20T01:05:49.831Z,73.35
2018-12-20T01:06:20.962Z,74.97
2018-12-20T01:06:52.139Z,71.25
2018-12-20T01:07:24.415Z,70.17
2018-12-20T01:07:55.646Z,69.77
2018-12-20T01:08:26.802Z,69.17
2018-12-20T01:08:58.220Z,68.10
2018-12-20T01:09:29.395Z,69.67
2018-12-20T01:10:00.540Z,69.70
2018-12-20T01:10:31.753Z,71.10
2018-12-20T01:11:02.917Z,68.80
2018-12-20T01:11:34.744Z,71.57
2018-12-20T01:12:05.888Z,73.40
2018-12-20T01:12:37.188Z,75.17
2018-12-20T01:13:08.400Z,69.75
2018-12-20T01:13:39.542Z,69.85
2018-12-20T01:14:10.786Z,71.53
2018-12-20T01:14:45.284Z,71.02
2018-12-20T01:15:15.259Z,71.15
2018-12-20T01:15:46.593Z,71.42
2018-12-20T01:16:17.848Z,73.80
2018-12-20T01:16:49.110Z,74.40
2018-12-20T01:17:20.266Z,70.65
2018-12-20T01:17:51.431Z,70.92
2018-12-20T01:18:22.984Z,75.70
2018-12-20T01:18:54.168Z,75.12
2018-12-20T01:19:25.412Z,77.55
2018-12-20T01:19:56.633Z,75.05
2018-12-20T01:20:27.923Z,68.80
2018-12-20T01:20:59.150Z,68.00
2018-12-20T01:21:30.405Z,74.20
2018-12-20T01:22:01.811Z,76.45
2018-12-20T01:22:33.058Z,69.65
2018-12-20T01:23:04.531Z,73.57
2018-12-20T01:23:35.744Z,72.60
2018-12-20T01:24:06.862Z,74.03
2018-12-20T01:24:38.878Z,68.40
2018-12-20T01:25:10.084Z,66.35
2018-12-20T01:25:41.352Z,66.80
2018-12-20T01:26:12.611Z,67.87
2018-12-20T01:26:43.926Z,71.82
2018-12-20T01:27:16.128Z,73.70
2018-12-20T01:27:47.271Z,72.32
2018-12-20T01:28:18.553Z,67.87
2018-12-20T01:28:49.763Z,71.25
2018-12-20T01:29:21.591Z,72.10
2018-12-20T01:29:52.748Z,64.53
2018-12-20T01:30:24.029Z,66.00
2018-12-20T01:30:55.331Z,72.37
2018-12-20T01:31:26.683Z,73.33
2018-12-20T01:31:57.879Z,72.75
2018-12-20T01:32:29.093Z,69.72
2018-12-20T01:33:00.302Z,70.62
2018-12-20T01:33:31.693Z,63.60
2018-12-20T01:34:02.948Z,69.47
2018-12-20T01:34:34.176Z,68.52
2018-12-20T01:35:05.387Z,68.62
2018-12-20T01:35:36.636Z,66.82
2018-12-20T01:36:07.845Z,69.27
2018-12-20T01:36:39.147Z,69.75
2018-12-20T01:37:10.477Z,71.97
2018-12-20T01:37:41.711Z,65.85
2018-12-20T01:38:12.833Z,68.97
2018-12-20T01:38:44.130Z,67.82
2018-12-20T01:39:15.332Z,67.58
2018-12-20T01:39:46.659Z,70.03
2018-12-20T01:40:18.014Z,64.90
2018-12-20T01:40:49.263Z,65.78
2018-12-20T01:41:20.390Z,69.45
2018-12-20T01:41:51.641Z,62.70
2018-12-20T01:42:22.921Z,70.35
2018-12-20T01:42:54.247Z,67.60
2018-12-20T01:43:25.398Z,65.62
2018-12-20T01:43:56.687Z,70.32
2018-12-20T01:44:27.848Z,70.35
2018-12-20T01:44:59.362Z,65.87
2018-12-20T01:45:30.601Z,67.40
2018-12-20T01:46:02.087Z,67.20
2018-12-20T01:46:33.344Z,65.03
2018-12-20T01:47:04.512Z,66.53
2018-12-20T01:47:35.909Z,64.90
2018-12-20T01:48:07.193Z,64.10
2018-12-20T01:48:38.409Z,64.12
2018-12-20T01:49:11.004Z,64.25
2018-12-20T01:49:42.221Z,63.33
2018-12-20T01:50:13.513Z,59.05
2018-12-20T01:50:44.733Z,62.80
2018-12-20T01:51:15.870Z,64.80
2018-12-20T01:51:46.990Z,62.15
2018-12-20T01:52:18.108Z,62.30
2018-12-20T01:52:49.237Z,61.83
2018-12-20T01:53:20.523Z,63.15
2018-12-20T01:53:51.714Z,62.75
2018-12-20T01:54:23.009Z,62.38
2018-12-20T01:54:54.269Z,61.30
2018-12-20T01:55:25.532Z,61.37
2018-12-20T01:55:56.824Z,57.38
2018-12-20T01:56:28.028Z,66.75
2018-12-20T01:56:59.195Z,57.00
2018-12-20T01:57:30.559Z,59.77
2018-12-20T01:58:01.823Z,58.28
2018-12-20T01:58:33.086Z,57.13
2018-12-20T01:59:04.510Z,59.23
2018-12-20T01:59:35.838Z,52.23
2018-12-20T02:00:07.052Z,59.33
2018-12-20T02:00:39.052Z,59.18
2018-12-20T02:01:10.613Z,52.78
2018-12-20T02:01:42.149Z,55.63
2018-12-20T02:02:13.567Z,60.10
2018-12-20T02:02:45.052Z,55.03
2018-12-20T02:03:16.266Z,57.78
2018-12-20T02:03:47.551Z,57.10
2018-12-20T02:04:18.774Z,58.55
2018-12-20T02:04:50.764Z,54.75
2018-12-20T02:05:21.919Z,57.23
2018-12-20T02:05:53.201Z,55.95
2018-12-20T02:06:24.754Z,56.35
2018-12-20T02:06:55.986Z,56.20
2018-12-20T02:07:27.124Z,55.05
2018-12-20T02:07:58.383Z,57.98
2018-12-20T02:08:30.606Z,59.80
2018-12-20T02:09:01.979Z,56.92
2018-12-20T02:09:33.255Z,57.40
2018-12-20T02:10:04.473Z,56.10
2018-12-20T02:10:35.656Z,55.03
2018-12-20T02:11:06.765Z,56.70
2018-12-20T02:11:38.092Z,59.77
2018-12-20T02:12:09.400Z,62.05
2018-12-20T02:12:40.548Z,57.23
2018-12-20T02:13:11.808Z,60.98
2018-12-20T02:13:43.102Z,60.23
2018-12-20T02:14:14.399Z,57.38
2018-12-20T02:14:45.613Z,58.50
2018-12-20T02:15:16.854Z,62.75
2018-12-20T02:15:48.585Z,61.85
2018-12-20T02:16:20.008Z,60.85
2018-12-20T02:16:51.152Z,58.98
2018-12-20T02:17:22.442Z,59.77
2018-12-20T02:17:53.616Z,58.42
2018-12-20T02:18:24.752Z,61.40
2018-12-20T02:18:56.068Z,58.45
2018-12-20T02:19:28.008Z,59.65
2018-12-20T02:19:59.256Z,61.80
2018-12-20T02:20:30.474Z,62.27
2018-12-20T02:21:01.630Z,59.35
2018-12-20T02:21:32.973Z,63.33
2018-12-20T02:22:04.181Z,62.17
2018-12-20T02:22:35.303Z,65.67
2018-12-20T02:23:06.412Z,58.40
2018-12-20T02:23:37.846Z,62.05
2018-12-20T02:24:09.092Z,58.52
2018-12-20T02:24:40.348Z,60.80
2018-12-20T02:25:11.468Z,61.92
2018-12-20T02:25:42.598Z,63.80
2018-12-20T02:26:13.871Z,61.53
2018-12-20T02:26:45.088Z,63.98
2018-12-20T02:27:16.353Z,61.42
2018-12-20T02:27:47.686Z,62.45
2018-12-20T02:28:19.060Z,60.25
2018-12-20T02:28:50.228Z,61.00
2018-12-20T02:29:21.402Z,60.70
2018-12-20T02:29:52.633Z,63.35
2018-12-20T02:30:23.838Z,62.62
2018-12-20T02:30:54.988Z,59.93
2018-12-20T02:31:26.212Z,63.28
2018-12-20T02:31:57.365Z,61.53
2018-12-20T02:32:28.480Z,60.10
2018-12-20T02:32:59.828Z,63.98
2018-12-20T02:33:31.025Z,61.18
2018-12-20T02:34:02.222Z,61.37
2018-12-20T02:34:33.432Z,57.73
2018-12-20T02:35:04.585Z,62.65
2018-12-20T02:35:35.784Z,62.85
2018-12-20T02:36:07.240Z,63.42
2018-12-20T02:36:38.539Z,62.35
2018-12-20T02:37:09.735Z,62.33
2018-12-20T02:37:40.959Z,64.62
2018-12-20T02:38:12.200Z,60.25
2018-12-20T02:38:43.613Z,61.63
2018-12-20T02:39:14.889Z,64.75
2018-12-20T02:39:46.113Z,62.45
2018-12-20T02:40:17.349Z,62.50
2018-12-20T02:40:48.592Z,63.78
2018-12-20T02:41:19.905Z,61.00
2018-12-20T02:41:51.130Z,62.20
2018-12-20T02:42:22.357Z,62.80
2018-12-20T02:42:53.518Z,63.98
2018-12-20T02:43:24.625Z,63.45
2018-12-20T02:43:55.785Z,61.70
2018-12-20T02:44:26.981Z,67.47
2018-12-20T02:44:58.226Z,62.98
2018-12-20T02:45:29.683Z,65.90
2018-12-20T02:46:00.840Z,67.47
2018-12-20T02:46:32.021Z,63.87
2018-12-20T02:47:03.194Z,63.58
2018-12-20T02:47:34.300Z,61.00
2018-12-20T02:48:06.596Z,63.10
2018-12-20T02:48:38.029Z,63.68
2018-12-20T02:49:09.262Z,60.73
2018-12-20T02:49:40.605Z,61.05
2018-12-20T02:50:11.837Z,61.30
2018-12-20T02:50:43.150Z,61.10
2018-12-20T02:51:14.368Z,66.33
2018-12-20T02:51:45.672Z,61.65
2018-12-20T02:52:16.909Z,65.17
2018-12-20T02:52:48.107Z,59.50
2018-12-20T02:53:19.271Z,62.48
2018-12-20T02:53:50.399Z,62.83
2018-12-20T02:54:21.553Z,63.98
2018-12-20T02:54:52.908Z,64.17
2018-12-20T02:55:24.381Z,60.00
2018-12-20T02:55:55.564Z,63.25
2018-12-20T02:56:26.951Z,66.90
2018-12-20T02:56:58.093Z,61.63
2018-12-20T02:57:29.246Z,62.08
2018-12-20T02:58:00.659Z,62.78
2018-12-20T02:58:32.066Z,63.95
2018-12-20T02:59:03.228Z,66.50
2018-12-20T02:59:34.419Z,60.95
2018-12-20T03:00:05.679Z,63.87
2018-12-20T03:00:36.936Z,63.73
2018-12-20T03:01:08.057Z,57.30
2018-12-20T03:01:39.341Z,64.47
2018-12-20T03:02:10.551Z,60.15
2018-12-20T03:02:41.881Z,61.60
2018-12-20T03:03:13.021Z,63.13
2018-12-20T03:03:44.203Z,64.80
2018-12-20T03:04:15.411Z,64.50
2018-12-20T03:04:46.659Z,61.98
2018-12-20T03:05:17.794Z,62.88
2018-12-20T03:05:49.018Z,63.87
2018-12-20T03:06:21.116Z,61.33
2018-12-20T03:06:52.287Z,61.40
2018-12-20T03:07:23.439Z,61.65
2018-12-20T03:07:54.555Z,67.55
2018-12-20T03:08:25.674Z,60.50
2018-12-20T03:08:56.986Z,66.67
2018-12-20T03:09:28.180Z,67.60
2018-12-20T03:09:59.322Z,64.32
2018-12-20T03:10:30.636Z,62.48
2018-12-20T03:11:01.790Z,60.05
2018-12-20T03:11:32.982Z,62.93
2018-12-20T03:12:04.238Z,60.63
2018-12-20T03:12:35.516Z,67.53
2018-12-20T03:13:06.980Z,65.15
2018-12-20T03:13:38.839Z,63.40
2018-12-20T03:14:10.304Z,66.20
2018-12-20T03:14:41.504Z,68.40
2018-12-20T03:15:19.959Z,64.05
2018-12-20T03:15:45.953Z,64.72
2018-12-20T03:16:17.291Z,61.20
2018-12-20T03:16:48.514Z,61.92
2018-12-20T03:17:19.720Z,60.23
2018-12-20T03:17:51.030Z,65.70
2018-12-20T03:18:22.301Z,62.08
2018-12-20T03:18:53.593Z,61.45
2018-12-20T03:19:24.766Z,60.15
2018-12-20T03:19:55.877Z,65.32
2018-12-20T03:20:26.996Z,63.78
2018-12-20T03:20:58.172Z,59.48
2018-12-20T03:21:29.507Z,61.90
2018-12-20T03:22:00.895Z,65.75
2018-12-20T03:22:32.058Z,61.80
2018-12-20T03:23:03.409Z,61.83
2018-12-20T03:23:34.758Z,60.50
2018-12-20T03:24:06.036Z,60.95
2018-12-20T03:24:37.319Z,62.75
2018-12-20T03:25:08.573Z,58.38
2018-12-20T03:25:39.960Z,61.08
2018-12-20T03:26:11.237Z,59.93
2018-12-20T03:26:42.393Z,61.92
2018-12-20T03:27:13.565Z,62.13
2018-12-20T03:27:44.709Z,57.65
2018-12-20T03:28:15.983Z,55.95
2018-12-20T03:28:48.275Z,57.38
2018-12-20T03:29:19.552Z,57.08
2018-12-20T03:29:50.913Z,60.67
2018-12-20T03:30:22.158Z,57.30
2018-12-20T03:30:53.342Z,55.75
2018-12-20T03:31:24.565Z,62.17
2018-12-20T03:31:55.806Z,62.08
2018-12-20T03:32:27.046Z,60.03
2018-12-20T03:32:58.311Z,59.50
2018-12-20T03:33:30.395Z,67.53
2018-12-20T03:34:01.925Z,59.60
2018-12-20T03:34:33.207Z,58.92
2018-12-20T03:35:04.322Z,58.20
2018-12-20T03:35:35.433Z,63.40
2018-12-20T03:36:06.620Z,64.50
2018-12-20T03:36:37.791Z,60.65
2018-12-20T03:37:09.184Z,61.05
2018-12-20T03:37:40.416Z,59.27
2018-12-20T03:38:11.691Z,59.38
2018-12-20T03:38:43.100Z,61.13
2018-12-20T03:39:14.261Z,56.48
2018-12-20T03:39:45.504Z,58.30
2018-12-20T03:40:16.803Z,56.77
2018-12-20T03:40:48.154Z,59.85
2018-12-20T03:41:19.532Z,59.42
2018-12-20T03:41:50.895Z,59.23
2018-12-20T03:42:22.089Z,58.35
2018-12-20T03:42:53.399Z,55.90
2018-12-20T03:43:24.678Z,59.50
2018-12-20T03:43:55.837Z,59.45
2018-12-20T03:44:27.030Z,55.52
2018-12-20T03:44:58.233Z,58.25
2018-12-20T03:45:29.499Z,58.68
2018-12-20T03:46:00.701Z,57.88
2018-12-20T03:46:31.887Z,58.95
2018-12-20T03:47:03.368Z,57.70
2018-12-20T03:47:35.062Z,55.12
2018-12-20T03:48:06.701Z,58.25
2018-12-20T03:48:38.207Z,60.05
2018-12-20T03:49:09.406Z,59.65
2018-12-20T03:49:40.795Z,66.40
2018-12-20T03:50:12.022Z,66.47
2018-12-20T03:50:43.260Z,62.43
2018-12-20T03:51:14.490Z,66.00
2018-12-20T03:51:45.894Z,63.08
2018-12-20T03:52:17.167Z,60.50
2018-12-20T03:52:48.492Z,59.33
2018-12-20T03:53:19.831Z,63.83
2018-12-20T03:53:50.979Z,60.73
2018-12-20T03:54:22.157Z,62.50
2018-12-20T03:54:53.568Z,58.98
2018-12-20T03:55:24.734Z,64.53
2018-12-20T03:55:55.909Z,58.15
2018-12-20T03:56:27.325Z,63.17
2018-12-20T03:56:58.654Z,60.08
2018-12-20T03:57:29.902Z,61.68
2018-12-20T03:58:01.174Z,56.85
2018-12-20T03:58:32.360Z,59.08
2018-12-20T03:59:03.589Z,62.95
2018-12-20T03:59:34.868Z,57.48
2018-12-20T04:00:06.149Z,60.33
2018-12-20T04:00:37.328Z,60.12
2018-12-20T04:01:08.449Z,61.88
2018-12-20T04:01:39.576Z,60.70
2018-12-20T04:02:10.676Z,58.98
2018-12-20T04:02:42.004Z,58.02
2018-12-20T04:03:13.347Z,58.15
2018-12-20T04:03:44.584Z,59.53
2018-12-20T04:04:15.861Z,56.37
2018-12-20T04:04:47.394Z,58.38
2018-12-20T04:05:18.745Z,52.08
2018-12-20T04:05:49.946Z,51.92
2018-12-20T04:06:21.204Z,56.92
2018-12-20T04:06:52.470Z,56.28
2018-12-20T04:07:23.620Z,53.98
2018-12-20T04:07:54.911Z,56.48
2018-12-20T04:08:26.064Z,54.65
2018-12-20T04:08:57.183Z,55.10
2018-12-20T04:09:28.477Z,55.43
2018-12-20T04:09:59.676Z,55.05
2018-12-20T04:10:30.868Z,58.20
2018-12-20T04:11:02.031Z,58.85
2018-12-20T04:11:33.240Z,51.20
2018-12-20T04:12:04.523Z,59.73
2018-12-20T04:12:35.731Z,54.40
2018-12-20T04:13:06.928Z,55.73
2018-12-20T04:13:38.084Z,51.73
2018-12-20T04:14:09.351Z,52.55
2018-12-20T04:14:40.815Z,52.00
2018-12-20T04:15:12.029Z,52.05
2018-12-20T04:15:43.167Z,53.45
2018-12-20T04:16:14.299Z,51.33
2018-12-20T04:16:45.748Z,54.23
2018-12-20T04:17:17.076Z,57.93
2018-12-20T04:17:48.495Z,53.38
2018-12-20T04:18:19.698Z,52.98
2018-12-20T04:18:50.867Z,56.98
2018-12-20T04:19:22.133Z,53.17
2018-12-20T04:19:53.353Z,57.55
2018-12-20T04:20:24.476Z,53.85
2018-12-20T04:20:55.852Z,56.02
2018-12-20T04:21:27.085Z,56.68
2018-12-20T04:21:58.251Z,55.33
2018-12-20T04:22:29.368Z,54.85
2018-12-20T04:23:00.490Z,53.42
2018-12-20T04:23:31.701Z,56.73
2018-12-20T04:24:02.868Z,56.35
2018-12-20T04:24:34.102Z,58.73
2018-12-20T04:25:05.244Z,56.30
2018-12-20T04:25:36.367Z,59.65
2018-12-20T04:26:07.501Z,60.40
2018-12-20T04:26:38.677Z,57.38
2018-12-20T04:27:09.988Z,57.38
2018-12-20T04:27:41.256Z,59.35
2018-12-20T04:28:13.325Z,61.02
2018-12-20T04:28:44.620Z,57.05
2018-12-20T04:29:15.981Z,57.73
2018-12-20T04:29:47.181Z,59.40
2018-12-20T04:30:18.543Z,57.88
2018-12-20T04:30:49.742Z,61.28
2018-12-20T04:31:20.932Z,61.30
2018-12-20T04:31:52.418Z,58.02
2018-12-20T04:32:23.688Z,62.33
2018-12-20T04:32:54.888Z,61.13
2018-12-20T04:33:26.168Z,58.68
2018-12-20T04:33:57.345Z,61.15
2018-12-20T04:34:28.682Z,58.55
2018-12-20T04:35:00.484Z,55.58
2018-12-20T04:35:31.678Z,59.60
2018-12-20T04:36:02.857Z,59.63
2018-12-20T04:36:34.044Z,58.05
2018-12-20T04:37:05.156Z,59.48
2018-12-20T04:37:36.269Z,62.05
2018-12-20T04:38:07.390Z,59.58
2018-12-20T04:38:38.554Z,61.85
2018-12-20T04:39:09.757Z,60.63
2018-12-20T04:39:41.074Z,61.13
2018-12-20T04:40:12.313Z,60.38
2018-12-20T04:40:43.641Z,62.50
2018-12-20T04:41:14.798Z,61.85
2018-12-20T04:41:46.129Z,60.40
2018-12-20T04:42:17.402Z,60.52
2018-12-20T04:42:48.593Z,65.25
2018-12-20T04:43:19.933Z,62.13
2018-12-20T04:43:51.087Z,61.48
2018-12-20T04:44:22.543Z,60.35
2018-12-20T04:44:53.869Z,60.25
2018-12-20T04:45:25.213Z,64.17
2018-12-20T04:45:56.463Z,60.55
2018-12-20T04:46:28.070Z,59.67
2018-12-20T04:46:59.717Z,57.78
2018-12-20T04:47:31.518Z,59.67
2018-12-20T04:48:02.957Z,64.42
2018-12-20T04:48:34.370Z,60.45
2018-12-20T04:49:06.361Z,59.53
2018-12-20T04:49:37.499Z,61.35
2018-12-20T04:50:08.725Z,63.10
2018-12-20T04:50:39.936Z,64.12
2018-12-20T04:51:11.161Z,60.20
2018-12-20T04:51:42.377Z,61.00
2018-12-20T04:52:13.631Z,65.20
2018-12-20T04:52:44.938Z,65.50
2018-12-20T04:53:16.216Z,66.45
2018-12-20T04:53:47.401Z,66.55
2018-12-20T04:54:18.706Z,65.08
2018-12-20T04:54:49.906Z,62.53
2018-12-20T04:55:21.018Z,61.95
2018-12-20T04:55:52.155Z,61.80
2018-12-20T04:56:23.276Z,69.00
2018-12-20T04:56:54.664Z,87.67
2018-12-20T04:57:27.191Z,67.22
2018-12-20T04:57:58.612Z,59.33
2018-12-20T04:58:29.852Z,55.48
2018-12-20T04:59:00.989Z,56.13
2018-12-20T04:59:32.441Z,58.98
2018-12-20T05:00:03.672Z,60.90
2018-12-20T05:00:34.822Z,58.70
2018-12-20T05:01:06.116Z,59.70
2018-12-20T05:01:37.390Z,59.63
2018-12-20T05:02:08.574Z,60.58
2018-12-20T05:02:39.934Z,64.15
2018-12-20T05:03:11.397Z,63.38
2018-12-20T05:03:42.830Z,60.33
2018-12-20T05:04:14.338Z,62.27
2018-12-20T05:04:45.574Z,65.40
2018-12-20T05:05:16.693Z,67.00
2018-12-20T05:05:48.182Z,64.92
2018-12-20T05:06:19.486Z,64.35
2018-12-20T05:06:50.602Z,61.40
2018-12-20T05:07:21.744Z,64.70
2018-12-20T05:07:52.957Z,62.00
2018-12-20T05:08:24.576Z,63.42
2018-12-20T05:08:56.622Z,60.33
2018-12-20T05:09:27.809Z,62.48
2018-12-20T05:09:58.928Z,60.88
2018-12-20T05:10:30.345Z,56.25
2018-12-20T05:11:01.752Z,61.83
2018-12-20T05:11:32.967Z,62.33
2018-12-20T05:12:04.108Z,63.90
2018-12-20T05:12:35.450Z,63.58
2018-12-20T05:13:06.971Z,66.45
2018-12-20T05:13:38.205Z,69.15
2018-12-20T05:14:09.425Z,72.42
2018-12-20T05:14:40.814Z,72.50
2018-12-20T05:15:12.120Z,70.25
2018-12-20T05:15:43.308Z,71.53
2018-12-20T05:16:14.593Z,71.22
2018-12-20T05:16:46.046Z,75.15
2018-12-20T05:17:17.348Z,67.87
2018-12-20T05:17:48.524Z,71.90
2018-12-20T05:18:20.321Z,73.90
2018-12-20T05:18:51.449Z,72.03
2018-12-20T05:19:22.685Z,71.97
2018-12-20T05:19:54.056Z,70.05
2018-12-20T05:20:25.283Z,71.57
2018-12-20T05:20:56.683Z,60.30
2018-12-20T05:21:28.015Z,62.98
2018-12-20T05:21:59.373Z,67.47
2018-12-20T05:22:30.607Z,66.45
2018-12-20T05:23:01.749Z,67.15
2018-12-20T05:23:32.943Z,65.17
2018-12-20T05:24:04.120Z,65.25
2018-12-20T05:24:35.271Z,60.23
2018-12-20T05:25:06.674Z,62.43
2018-12-20T05:25:38.129Z,63.15
2018-12-20T05:26:10.506Z,61.10
2018-12-20T05:26:41.867Z,64.37
2018-12-20T05:27:13.056Z,65.85
2018-12-20T05:27:46.717Z,73.22
2018-12-20T05:28:17.955Z,63.87
2018-12-20T05:28:49.310Z,69.05
2018-12-20T05:29:20.675Z,71.87
2018-12-20T05:29:51.920Z,62.67
2018-12-20T05:30:27.172Z,65.35
2018-12-20T05:30:58.368Z,63.52
2018-12-20T05:31:29.513Z,64.53
2018-12-20T05:32:01.229Z,66.65
2018-12-20T05:32:33.130Z,59.53
2018-12-20T05:33:05.490Z,66.12
2018-12-20T05:33:36.921Z,67.85
2018-12-20T05:34:08.717Z,64.90
2018-12-20T05:34:42.287Z,64.07
2018-12-20T05:35:13.513Z,71.72
2018-12-20T05:35:44.874Z,66.28
2018-12-20T05:36:16.817Z,63.95
2018-12-20T05:36:48.634Z,62.23
2018-12-20T05:37:19.942Z,60.90
2018-12-20T05:37:51.245Z,62.35
2018-12-20T05:38:22.756Z,56.45
2018-12-20T05:38:54.032Z,56.73
2018-12-20T05:39:25.450Z,61.53
2018-12-20T05:39:56.728Z,58.70
2018-12-20T05:40:27.922Z,62.30
2018-12-20T05:40:59.248Z,64.10
2018-12-20T05:41:30.506Z,66.22
2018-12-20T05:42:01.654Z,61.23
2018-12-20T05:42:32.926Z,62.80
2018-12-20T05:43:04.266Z,68.87
2018-12-20T05:43:35.497Z,69.35
2018-12-20T05:44:08.193Z,73.37
2018-12-20T05:44:39.763Z,70.10
2018-12-20T05:45:10.919Z,69.05
2018-12-20T05:45:42.049Z,72.27
2018-12-20T05:46:13.206Z,72.67
2018-12-20T05:46:44.416Z,68.87
2018-12-20T05:47:15.595Z,70.70
2018-12-20T05:47:46.817Z,70.22
2018-12-20T05:48:18.158Z,64.92
2018-12-20T05:48:49.484Z,65.37
2018-12-20T05:49:20.660Z,64.47
2018-12-20T05:49:51.805Z,66.72
2018-12-20T05:50:23.037Z,78.65
2018-12-20T05:50:54.460Z,66.02
2018-12-20T05:51:25.847Z,70.50
2018-12-20T05:51:57.024Z,66.15
2018-12-20T05:52:28.280Z,69.50
2018-12-20T05:52:59.476Z,67.12
2018-12-20T05:53:30.777Z,63.23
2018-12-20T05:54:02.109Z,65.08
2018-12-20T05:54:33.440Z,68.47
2018-12-20T05:55:04.701Z,68.07
2018-12-20T05:55:35.897Z,67.27
2018-12-20T05:56:07.057Z,64.47
2018-12-20T05:56:38.479Z,69.67
2018-12-20T05:57:09.846Z,71.22
2018-12-20T05:57:41.082Z,71.72
2018-12-20T05:58:12.469Z,72.60
2018-12-20T05:58:44.589Z,70.20
2018-12-20T06:00:01.799Z,69.12
2018-12-20T06:00:32.990Z,78.52
2018-12-20T06:01:04.380Z,74.90
2018-12-20T06:01:35.504Z,76.77
2018-12-20T06:02:06.635Z,73.72
2018-12-20T06:02:37.821Z,72.03
2018-12-20T06:03:09.029Z,74.32
2018-12-20T06:03:41.023Z,70.97
2018-12-20T06:04:12.296Z,76.85
2018-12-20T06:04:43.664Z,79.97
2018-12-20T06:05:14.879Z,76.85
2018-12-20T06:05:46.074Z,77.15
2018-12-20T06:06:17.185Z,77.62
2018-12-20T06:06:48.410Z,75.20
2018-12-20T06:07:19.553Z,72.15
2018-12-20T06:07:50.714Z,74.20
2018-12-20T06:08:22.134Z,78.22
2018-12-20T06:08:53.579Z,75.30
2018-12-20T06:09:24.804Z,72.27
2018-12-20T06:09:55.952Z,71.55
2018-12-20T06:10:27.198Z,66.92
2018-12-20T06:10:58.452Z,71.57
2018-12-20T06:11:29.842Z,73.22
2018-12-20T06:12:01.000Z,70.70
2018-12-20T06:12:32.253Z,67.35
2018-12-20T06:13:03.546Z,74.80
2018-12-20T06:13:34.731Z,72.37
2018-12-20T06:14:05.997Z,77.05
2018-12-20T06:14:37.436Z,73.40
2018-12-20T06:15:08.650Z,72.92
2018-12-20T06:15:40.008Z,70.08
2018-12-20T06:16:12.991Z,68.15
2018-12-20T06:16:44.361Z,72.67
2018-12-20T06:17:15.716Z,71.47
2018-12-20T06:17:47.051Z,69.00
2018-12-20T06:18:18.227Z,68.47
2018-12-20T06:18:49.435Z,70.57
2018-12-20T06:19:20.954Z,69.12
2018-12-20T06:19:52.858Z,70.37
2018-12-20T06:20:24.317Z,68.72
2018-12-20T06:20:55.575Z,71.97
2018-12-20T06:21:26.809Z,74.35
2018-12-20T06:21:57.937Z,71.50
2018-12-20T06:22:29.056Z,68.55
2018-12-20T06:23:00.188Z,71.05
2018-12-20T06:23:31.293Z,74.35
2018-12-20T06:24:02.450Z,77.97
2018-12-20T06:24:33.557Z,72.50
2018-12-20T06:25:04.680Z,73.20
2018-12-20T06:25:35.807Z,69.25
2018-12-20T06:26:06.929Z,71.40
2018-12-20T06:26:38.058Z,78.47
2018-12-20T06:27:09.204Z,76.47
2018-12-20T06:27:40.350Z,73.40
2018-12-20T06:28:11.488Z,74.70
2018-12-20T06:28:42.612Z,73.10
2018-12-20T06:29:13.808Z,73.45
2018-12-20T06:29:44.970Z,70.65
2018-12-20T06:30:16.136Z,74.97
2018-12-20T06:30:47.315Z,76.22
2018-12-20T06:31:18.429Z,75.00
2018-12-20T06:31:49.541Z,79.55
2018-12-20T06:32:20.653Z,75.50
2018-12-20T06:32:51.768Z,84.58
2018-12-20T06:33:22.878Z,85.00
2018-12-20T06:33:54.029Z,90.50
2018-12-20T06:34:25.226Z,87.50
2018-12-20T06:34:56.358Z,79.77
2018-12-20T06:35:27.501Z,78.40
2018-12-20T06:35:58.629Z,71.70
2018-12-20T06:36:30.923Z,72.25
2018-12-20T06:37:02.080Z,70.05
2018-12-20T06:37:33.196Z,67.53
2018-12-20T06:38:04.315Z,72.20
2018-12-20T06:38:35.436Z,64.17
2018-12-20T06:39:06.544Z,63.55
2018-12-20T06:39:37.696Z,68.47
2018-12-20T06:40:08.813Z,63.50
2018-12-20T06:40:39.921Z,68.52
2018-12-20T06:41:11.043Z,77.65
2018-12-20T06:41:42.146Z,76.02
2018-12-20T06:42:13.261Z,71.15
2018-12-20T06:42:44.379Z,69.07
2018-12-20T06:43:15.544Z,75.57
2018-12-20T06:43:46.676Z,76.77